createdAt,value
2018-09-04T00:00:21.688Z,67.66
2018-09-04T00:02:51.028Z,67.74
2018-09-04T00:05:20.553Z,67.99
2018-09-04T00:07:49.919Z,68.42
2018-09-04T00:10:19.271Z,68.02
2018-09-04T00:12:48.724Z,67.88
2018-09-04T00:15:18.090Z,67.53
2018-09-04T00:17:47.496Z,68.28
2018-09-04T00:20:16.851Z,68.45
2018-09-04T00:22:46.286Z,69.05
2018-09-04T00:25:15.603Z,69.47
2018-09-04T00:27:45.489Z,69.26
2018-09-04T00:30:14.866Z,68.99
2018-09-04T00:32:44.217Z,69.08
2018-09-04T00:35:13.608Z,68.73
2018-09-04T00:37:42.960Z,69.63
2018-09-04T00:40:12.280Z,69.18
2018-09-04T00:42:41.728Z,69.49
2018-09-04T00:45:11.054Z,69.91
2018-09-04T00:47:40.336Z,69.30
2018-09-04T00:50:09.689Z,69.46
2018-09-04T00:52:38.987Z,68.75
2018-09-04T00:55:08.306Z,70.25
2018-09-04T00:57:38.257Z,69.88
2018-09-04T01:00:07.689Z,69.64
2018-09-04T01:02:36.989Z,69.45
2018-09-04T01:05:06.465Z,70.16
2018-09-04T01:07:35.716Z,69.90
2018-09-04T01:10:05.047Z,69.97
2018-09-04T01:12:34.440Z,70.99
2018-09-04T01:15:03.726Z,69.79
2018-09-04T01:17:33.044Z,70.50
2018-09-04T01:20:02.362Z,71.41
2018-09-04T01:22:31.618Z,71.53
2018-09-04T01:25:01.002Z,71.47
2018-09-04T01:27:30.347Z,71.59
2018-09-04T01:29:59.609Z,71.53
2018-09-04T01:32:29.031Z,70.20
2018-09-04T01:34:58.787Z,71.45
2018-09-04T01:37:28.171Z,71.85
2018-09-04T01:39:57.485Z,72.15
2018-09-04T01:42:27.002Z,71.79
2018-09-04T01:44:56.597Z,71.58
2018-09-04T01:47:25.999Z,72.36
2018-09-04T01:49:55.402Z,72.42
2018-09-04T01:52:24.853Z,72.06
2018-09-04T01:54:54.308Z,72.82
2018-09-04T01:57:23.730Z,72.10
2018-09-04T01:59:54.126Z,73.01
2018-09-04T02:02:23.519Z,72.86
2018-09-04T02:04:52.892Z,72.95
2018-09-04T02:07:22.488Z,73.02
2018-09-04T02:09:51.855Z,72.75
2018-09-04T02:12:21.269Z,72.41
2018-09-04T02:14:50.547Z,72.27
2018-09-04T02:17:19.850Z,72.13
2018-09-04T02:19:49.260Z,72.74
2018-09-04T02:22:18.605Z,72.73
2018-09-04T02:24:47.992Z,72.43
2018-09-04T02:27:17.427Z,72.19
2018-09-04T02:29:46.776Z,71.97
2018-09-04T02:32:16.051Z,72.02
2018-09-04T02:34:45.399Z,72.53
2018-09-04T02:37:14.872Z,72.58
2018-09-04T02:39:44.310Z,71.13
2018-09-04T02:42:14.019Z,71.85
2018-09-04T02:44:43.411Z,70.63
2018-09-04T02:47:12.739Z,70.58
2018-09-04T02:49:42.148Z,71.77
2018-09-04T02:52:11.477Z,70.81
2018-09-04T02:54:40.844Z,71.24
2018-09-04T02:57:10.283Z,71.48
2018-09-04T02:59:39.683Z,71.59
2018-09-04T03:02:09.207Z,71.10
2018-09-04T03:04:38.993Z,71.43
2018-09-04T03:07:08.411Z,71.43
2018-09-04T03:09:37.788Z,71.73
2018-09-04T03:12:07.315Z,71.76
2018-09-04T03:14:36.867Z,71.27
2018-09-04T03:17:07.557Z,72.60
2018-09-04T03:19:37.110Z,72.31
2018-09-04T03:22:06.588Z,72.54
2018-09-04T03:24:36.087Z,72.41
2018-09-04T03:27:05.768Z,73.53
2018-09-04T03:29:35.095Z,74.16
2018-09-04T03:32:04.495Z,73.42
2018-09-04T03:34:33.995Z,72.67
2018-09-04T03:37:03.517Z,72.31
2018-09-04T03:39:32.943Z,72.72
2018-09-04T03:42:02.635Z,73.46
2018-09-04T03:44:32.160Z,72.48
2018-09-04T03:47:01.495Z,72.18
2018-09-04T03:49:30.953Z,72.67
2018-09-04T03:52:00.336Z,73.25
2018-09-04T03:54:29.940Z,72.92
2018-09-04T03:56:59.397Z,73.01
2018-09-04T03:59:28.859Z,73.85
2018-09-04T04:01:58.379Z,73.43
2018-09-04T04:04:27.953Z,73.25
2018-09-04T04:06:57.301Z,73.22
2018-09-04T04:09:26.634Z,73.43
2018-09-04T04:11:56.502Z,73.79
2018-09-04T04:14:25.894Z,72.87
2018-09-04T04:16:55.388Z,73.08
2018-09-04T04:19:24.929Z,72.87
2018-09-04T04:21:54.335Z,73.39
2018-09-04T04:24:23.775Z,75.14
2018-09-04T04:26:53.190Z,75.20
2018-09-04T04:29:22.518Z,75.44
2018-09-04T04:31:51.917Z,74.42
2018-09-04T04:34:21.518Z,75.10
2018-09-04T04:36:50.913Z,75.12
2018-09-04T04:39:20.280Z,73.69
2018-09-04T04:41:49.616Z,73.55
2018-09-04T04:44:19.331Z,74.01
2018-09-04T04:46:48.743Z,73.76
2018-09-04T04:49:18.359Z,74.79
2018-09-04T04:51:47.740Z,74.02
2018-09-04T04:54:17.398Z,74.10
2018-09-04T04:56:47.015Z,74.00
2018-09-04T04:59:16.510Z,73.86
2018-09-04T05:01:45.884Z,73.13
2018-09-04T05:04:15.355Z,74.33
2018-09-04T05:06:44.682Z,76.12
2018-09-04T05:09:14.101Z,77.14
2018-09-04T05:11:43.547Z,76.70
2018-09-04T05:14:12.951Z,75.90
2018-09-04T05:16:42.299Z,75.02
2018-09-04T05:19:12.428Z,75.76
2018-09-04T05:21:41.830Z,74.87
2018-09-04T05:24:11.220Z,74.90
2018-09-04T05:26:40.713Z,74.38
2018-09-04T05:29:10.227Z,74.13
2018-09-04T05:31:44.702Z,74.18
2018-09-04T05:34:14.092Z,73.90
2018-09-04T05:36:43.660Z,73.88
2018-09-04T05:39:13.677Z,74.36
2018-09-04T05:41:43.091Z,74.29
2018-09-04T05:44:12.613Z,73.01
2018-09-04T05:46:47.889Z,74.02
2018-09-04T05:49:19.484Z,73.86
2018-09-04T05:51:48.842Z,72.99
2018-09-04T05:54:18.213Z,73.05
2018-09-04T05:56:47.587Z,72.74
2018-09-04T05:59:17.305Z,73.04
2018-09-04T06:01:46.676Z,73.62
2018-09-04T06:04:16.049Z,73.18
2018-09-04T06:06:45.500Z,72.55
2018-09-04T06:09:14.895Z,73.02
2018-09-04T06:11:44.418Z,72.59
2018-09-04T06:14:14.218Z,72.18
2018-09-04T06:16:44.608Z,71.85
2018-09-04T06:19:14.967Z,73.38
2018-09-04T06:21:45.188Z,73.05
2018-09-04T06:24:14.656Z,72.97
2018-09-04T06:26:44.076Z,72.73
2018-09-04T06:29:13.551Z,71.94
2018-09-04T06:31:42.987Z,73.30
2018-09-04T06:34:12.528Z,72.55
2018-09-04T06:36:41.950Z,72.55
2018-09-04T06:39:11.858Z,71.98
2018-09-04T06:41:41.507Z,73.10
2018-09-04T06:44:10.913Z,71.25
2018-09-04T06:46:40.343Z,71.31
2018-09-04T06:49:09.774Z,70.98
2018-09-04T06:51:39.080Z,71.52
2018-09-04T06:54:08.393Z,71.63
2018-09-04T06:56:37.790Z,71.74
2018-09-04T06:59:07.148Z,72.51
2018-09-04T07:01:36.558Z,72.21
2018-09-04T07:04:06.474Z,72.13
2018-09-04T07:06:35.888Z,72.69
2018-09-04T07:09:07.882Z,72.36
2018-09-04T07:11:37.240Z,71.71
2018-09-04T07:14:06.870Z,71.58
2018-09-04T07:16:36.542Z,70.25
2018-09-04T07:19:06.597Z,69.64
2018-09-04T07:21:36.146Z,70.64
2018-09-04T07:24:05.948Z,69.65
2018-09-04T07:26:35.383Z,70.22
2018-09-04T07:29:04.852Z,70.64
2018-09-04T07:31:34.198Z,71.17
2018-09-04T07:34:03.653Z,70.06
2018-09-04T07:36:33.065Z,68.75
2018-09-04T07:39:02.356Z,68.45
2018-09-04T07:41:31.674Z,69.54
2018-09-04T07:44:01.381Z,69.69
2018-09-04T07:46:31.167Z,69.25
2018-09-04T07:49:00.510Z,68.72
2018-09-04T07:51:29.923Z,69.14
2018-09-04T07:53:59.397Z,69.34
2018-09-04T07:56:28.867Z,69.47
2018-09-04T07:58:58.367Z,69.30
2018-09-04T08:01:27.739Z,68.99
2018-09-04T08:03:57.176Z,70.10
2018-09-04T08:06:26.653Z,71.08
2018-09-04T08:08:56.509Z,71.17
2018-09-04T08:11:26.039Z,69.90
2018-09-04T08:13:55.483Z,68.63
2018-09-04T08:16:24.963Z,69.21
2018-09-04T08:18:54.351Z,69.28
2018-09-04T08:21:23.783Z,68.15
2018-09-04T08:23:53.328Z,68.03
2018-09-04T08:26:23.408Z,67.91
2018-09-04T08:28:52.787Z,67.95
2018-09-04T08:31:22.864Z,67.25
2018-09-04T08:33:52.286Z,67.56
2018-09-04T08:36:21.926Z,68.04
2018-09-04T08:38:52.096Z,66.57
2018-09-04T08:41:21.601Z,67.13
2018-09-04T08:43:51.051Z,69.01
2018-09-04T08:46:20.688Z,69.60
2018-09-04T08:48:50.268Z,70.00
2018-09-04T08:51:19.883Z,69.45
2018-09-04T08:53:49.643Z,67.56
2018-09-04T08:56:19.072Z,65.67
2018-09-04T08:58:48.734Z,64.87
2018-09-04T09:01:18.250Z,65.09
2018-09-04T09:03:47.707Z,64.42
2018-09-04T09:06:16.998Z,64.92
2018-09-04T09:08:46.520Z,64.78
2018-09-04T09:11:15.876Z,64.95
2018-09-04T09:13:45.289Z,64.05
2018-09-04T09:16:14.860Z,63.81
2018-09-04T09:18:44.251Z,62.88
2018-09-04T09:21:13.728Z,62.69
2018-09-04T09:23:43.227Z,61.73
2018-09-04T09:26:12.679Z,61.73
2018-09-04T09:28:42.172Z,60.94
2018-09-04T09:31:11.632Z,61.01
2018-09-04T09:33:40.964Z,61.30
2018-09-04T09:36:10.493Z,61.18
2018-09-04T09:38:40.135Z,61.34
2018-09-04T09:41:09.524Z,60.71
2018-09-04T09:43:38.960Z,59.25
2018-09-04T09:46:08.367Z,59.22
2018-09-04T09:48:40.690Z,58.48
2018-09-04T09:51:11.531Z,59.24
2018-09-04T09:53:41.640Z,59.60
2018-09-04T09:56:11.829Z,59.63
2018-09-04T09:58:41.937Z,59.14
2018-09-04T10:01:16.459Z,59.78
2018-09-04T10:03:51.174Z,58.67
2018-09-04T10:06:21.592Z,59.02
2018-09-04T10:08:51.099Z,59.70
2018-09-04T10:11:20.520Z,59.48
2018-09-04T10:13:50.215Z,58.89
2018-09-04T10:16:20.183Z,58.31
2018-09-04T10:18:49.942Z,59.06
2018-09-04T10:21:19.300Z,59.90
2018-09-04T10:23:48.676Z,59.08
2018-09-04T10:26:18.190Z,56.51
2018-09-04T10:28:47.617Z,54.31
2018-09-04T10:31:16.958Z,52.32
2018-09-04T10:33:46.461Z,51.53
2018-09-04T10:36:15.886Z,49.43
2018-09-04T10:38:45.325Z,49.10
2018-09-04T10:41:15.591Z,48.41
2018-09-04T10:43:45.005Z,48.66
2018-09-04T10:46:15.655Z,48.41
2018-09-04T10:48:45.036Z,47.84
2018-09-04T10:51:14.507Z,48.44
2018-09-04T10:53:43.873Z,46.18
2018-09-04T10:56:13.816Z,45.33
2018-09-04T10:58:43.425Z,45.71
2018-09-04T11:01:12.852Z,45.17
2018-09-04T11:03:42.462Z,43.66
2018-09-04T11:06:11.867Z,40.96
2018-09-04T11:08:41.254Z,40.64
2018-09-04T11:11:10.655Z,38.79
2018-09-04T11:13:40.051Z,38.77
2018-09-04T11:16:09.426Z,38.38
2018-09-04T11:18:38.800Z,38.35
2018-09-04T11:21:08.169Z,38.78
2018-09-04T11:23:37.571Z,39.73
2018-09-04T11:26:07.477Z,38.91
2018-09-04T11:28:41.885Z,40.02
2018-09-04T11:31:11.327Z,41.04
2018-09-04T11:33:40.750Z,40.42
2018-09-04T11:36:10.146Z,39.02
2018-09-04T11:38:39.539Z,37.37
2018-09-04T11:41:08.943Z,36.72
2018-09-04T11:43:38.297Z,35.21
2018-09-04T11:46:08.701Z,34.52
2018-09-04T11:48:39.977Z,32.41
2018-09-04T11:51:11.223Z,31.99
2018-09-04T11:53:40.561Z,32.57
2018-09-04T11:56:09.896Z,33.26
2018-09-04T11:58:39.763Z,32.97
2018-09-04T12:01:10.817Z,32.12
2018-09-04T12:03:40.146Z,31.38
2018-09-04T12:06:09.890Z,32.08
2018-09-04T12:08:39.287Z,31.72
2018-09-04T12:11:08.661Z,31.58
2018-09-04T12:13:38.086Z,31.24
2018-09-04T12:16:07.481Z,32.00
2018-09-04T12:18:36.897Z,31.59
2018-09-04T12:21:07.841Z,32.64
2018-09-04T12:23:37.425Z,31.77
2018-09-04T12:26:08.668Z,30.46
2018-09-04T12:28:38.167Z,31.00
2018-09-04T12:31:08.242Z,30.85
2018-09-04T12:33:37.606Z,30.82
2018-09-04T12:36:07.547Z,31.06
2018-09-04T12:38:39.520Z,28.71
2018-09-04T12:41:15.884Z,27.83
2018-09-04T12:43:45.780Z,27.00
2018-09-04T12:46:15.384Z,27.69
2018-09-04T12:48:48.857Z,28.20
2018-09-04T12:51:18.415Z,27.79
2018-09-04T12:53:47.991Z,28.24
2018-09-04T12:56:17.426Z,28.92
2018-09-04T12:58:47.536Z,28.56
2018-09-04T13:01:17.072Z,26.62
2018-09-04T13:03:46.920Z,27.02
2018-09-04T13:06:16.395Z,27.30
2018-09-04T13:08:45.996Z,27.63
2018-09-04T13:11:15.722Z,27.76
2018-09-04T13:13:45.175Z,27.77
2018-09-04T13:16:14.671Z,27.81
2018-09-04T13:18:44.108Z,28.04
2018-09-04T13:21:13.511Z,29.06
2018-09-04T13:23:42.915Z,31.97
2018-09-04T13:26:12.751Z,32.96
2018-09-04T13:28:42.128Z,31.48
2018-09-04T13:31:11.509Z,31.70
2018-09-04T13:33:40.864Z,31.62
2018-09-04T13:36:10.324Z,30.17
2018-09-04T13:38:39.766Z,29.02
2018-09-04T13:41:10.067Z,27.85
2018-09-04T13:43:40.316Z,27.31
2018-09-04T13:46:09.695Z,26.53
2018-09-04T13:48:39.503Z,27.18
2018-09-04T13:51:08.990Z,26.84
2018-09-04T13:53:38.790Z,27.33
2018-09-04T13:56:08.176Z,26.85
2018-09-04T13:58:37.516Z,26.75
2018-09-04T14:01:07.361Z,26.50
2018-09-04T14:03:36.756Z,26.94
2018-09-04T14:06:06.303Z,27.06
2018-09-04T14:08:35.703Z,27.17
2018-09-04T14:11:05.483Z,27.18
2018-09-04T14:13:34.819Z,27.24
2018-09-04T14:16:07.605Z,28.56
2018-09-04T14:18:37.048Z,27.19
2018-09-04T14:21:06.608Z,27.21
2018-09-04T14:23:36.052Z,28.32
2018-09-04T14:26:05.603Z,27.44
2018-09-04T14:28:42.102Z,28.15
2018-09-04T14:31:05.648Z,27.90
2018-09-04T14:33:35.261Z,28.42
2018-09-04T14:36:04.657Z,28.56
2018-09-04T14:38:34.210Z,29.33
2018-09-04T14:41:03.861Z,29.40
2018-09-04T14:43:33.361Z,29.30
2018-09-04T14:46:03.012Z,30.47
2018-09-04T14:48:32.497Z,29.82
2018-09-04T14:51:01.911Z,28.60
2018-09-04T14:53:31.630Z,30.43
2018-09-04T14:56:01.133Z,29.94
2018-09-04T14:58:30.489Z,31.56
2018-09-04T15:00:59.977Z,32.67
2018-09-04T15:03:29.327Z,32.31
2018-09-04T15:05:58.712Z,31.58
2018-09-04T15:08:28.519Z,31.23
2018-09-04T15:10:57.967Z,31.95
2018-09-04T15:13:27.542Z,32.05
2018-09-04T15:15:57.821Z,31.74
2018-09-04T15:18:27.118Z,31.83
2018-09-04T15:20:56.513Z,31.54
2018-09-04T15:23:25.945Z,31.74
2018-09-04T15:25:55.507Z,32.20
2018-09-04T15:28:24.871Z,31.71
2018-09-04T15:30:54.536Z,32.14
2018-09-04T15:33:24.057Z,31.65
2018-09-04T15:35:53.565Z,31.03
2018-09-04T15:38:23.170Z,32.64
2018-09-04T15:40:52.620Z,32.21
2018-09-04T15:43:22.028Z,32.76
2018-09-04T15:45:51.744Z,32.69
2018-09-04T15:48:21.108Z,30.91
2018-09-04T15:50:50.558Z,31.54
2018-09-04T15:53:20.071Z,31.86
2018-09-04T15:55:49.539Z,33.03
2018-09-04T15:58:19.191Z,32.08
2018-09-04T16:00:48.787Z,32.62
2018-09-04T16:03:18.221Z,33.75
2018-09-04T16:06:23.539Z,33.82
2018-09-04T16:08:52.859Z,33.49
2018-09-04T16:11:22.376Z,34.52
2018-09-04T16:13:51.864Z,34.59
2018-09-04T16:16:21.313Z,34.12
2018-09-04T16:18:51.030Z,35.28
2018-09-04T16:21:20.917Z,35.69
2018-09-04T16:23:50.573Z,36.50
2018-09-04T16:26:20.112Z,37.27
2018-09-04T16:28:50.847Z,36.71
2018-09-04T16:31:20.435Z,38.49
2018-09-04T16:33:49.966Z,39.77
2018-09-04T16:36:19.712Z,39.66
2018-09-04T16:38:49.219Z,41.02
2018-09-04T16:41:18.665Z,40.55
2018-09-04T16:43:48.327Z,40.91
2018-09-04T16:46:17.806Z,41.30
2018-09-04T16:48:47.409Z,40.96
2018-09-04T16:51:16.816Z,41.32
2018-09-04T16:53:46.375Z,42.01
2018-09-04T16:56:15.810Z,42.94
2018-09-04T16:58:45.279Z,42.80
2018-09-04T17:01:14.758Z,44.58
2018-09-04T17:03:44.140Z,44.56
2018-09-04T17:06:13.725Z,44.17
2018-09-04T17:08:43.293Z,44.01
2018-09-04T17:11:12.937Z,44.63
2018-09-04T17:13:42.558Z,44.76
2018-09-04T17:16:11.964Z,45.06
2018-09-04T17:18:41.318Z,45.03
2018-09-04T17:21:10.812Z,45.61
2018-09-04T17:23:40.275Z,45.46
2018-09-04T17:26:09.706Z,46.31
2018-09-04T17:28:39.428Z,46.22
2018-09-04T17:31:08.944Z,46.90
2018-09-04T17:33:38.700Z,47.41
2018-09-04T17:36:08.206Z,46.89
2018-09-04T17:38:37.575Z,47.91
2018-09-04T17:41:07.245Z,47.21
2018-09-04T17:43:36.774Z,48.86
2018-09-04T17:46:06.962Z,47.74
2018-09-04T17:48:36.717Z,49.07
2018-09-04T17:51:06.887Z,49.20
2018-09-04T17:53:36.398Z,50.14
2018-09-04T17:56:05.865Z,49.25
2018-09-04T17:58:35.360Z,50.39
2018-09-04T18:01:04.981Z,50.52
2018-09-04T18:03:34.774Z,51.10
2018-09-04T18:06:04.326Z,51.70
2018-09-04T18:08:33.769Z,52.23
2018-09-04T18:11:03.276Z,52.38
2018-09-04T18:13:33.222Z,52.54
2018-09-04T18:16:02.562Z,53.50
2018-09-04T18:18:32.056Z,52.75
2018-09-04T18:21:01.712Z,52.84
2018-09-04T18:23:31.244Z,54.25
2018-09-04T18:26:00.807Z,53.78
2018-09-04T18:28:33.017Z,54.58
2018-09-04T18:31:02.495Z,54.09
2018-09-04T18:33:31.861Z,54.89
2018-09-04T18:36:01.417Z,55.37
2018-09-04T18:38:31.176Z,54.71
2018-09-04T18:41:00.772Z,55.17
2018-09-04T18:43:30.732Z,55.19
2018-09-04T18:46:00.378Z,55.65
2018-09-04T18:48:29.934Z,55.81
2018-09-04T18:50:59.514Z,55.64
2018-09-04T18:53:28.956Z,56.52
2018-09-04T18:55:58.319Z,56.30
2018-09-04T18:58:27.825Z,56.33
2018-09-04T19:00:57.153Z,56.44
2018-09-04T19:03:26.510Z,56.47
2018-09-04T19:05:56.037Z,56.87
2018-09-04T19:08:25.361Z,57.30
2018-09-04T19:10:54.753Z,57.23
2018-09-04T19:13:24.572Z,57.22
2018-09-04T19:15:54.030Z,57.75
2018-09-04T19:18:24.003Z,57.71
2018-09-04T19:20:53.851Z,58.23
2018-09-04T19:23:23.319Z,58.03
2018-09-04T19:25:52.993Z,58.99
2018-09-04T19:28:23.371Z,59.35
2018-09-04T19:30:52.718Z,59.28
2018-09-04T19:33:22.332Z,58.76
2018-09-04T19:35:52.027Z,59.29
2018-09-04T19:38:21.526Z,59.43
2018-09-04T19:40:51.049Z,59.16
2018-09-04T19:43:22.187Z,59.62
2018-09-04T19:45:51.569Z,60.29
2018-09-04T19:48:21.004Z,60.03
2018-09-04T19:50:50.447Z,60.56
2018-09-04T19:53:19.834Z,60.82
2018-09-04T19:55:49.346Z,60.41
2018-09-04T19:58:18.849Z,60.60
2018-09-04T20:00:48.704Z,60.65
2018-09-04T20:03:18.572Z,61.69
2018-09-04T20:05:48.397Z,61.43
2018-09-04T20:08:17.936Z,62.04
2018-09-04T20:10:47.444Z,62.53
2018-09-04T20:13:18.310Z,61.35
2018-09-04T20:15:47.903Z,61.90
2018-09-04T20:18:17.397Z,62.50
2018-09-04T20:20:47.031Z,62.54
2018-09-04T20:23:16.755Z,62.15
2018-09-04T20:25:46.385Z,62.66
2018-09-04T20:28:16.197Z,62.62
2018-09-04T20:30:45.963Z,62.95
2018-09-04T20:33:15.397Z,62.14
2018-09-04T20:35:45.132Z,62.24
2018-09-04T20:38:14.550Z,62.91
2018-09-04T20:40:43.951Z,63.60
2018-09-04T20:43:14.384Z,64.24
2018-09-04T20:45:44.648Z,63.80
2018-09-04T20:48:14.320Z,63.52
2018-09-04T20:50:44.875Z,63.93
2018-09-04T20:53:14.532Z,63.15
2018-09-04T20:55:43.917Z,64.62
2018-09-04T20:58:30.383Z,64.89
2018-09-04T21:01:16.801Z,64.38
2018-09-04T21:04:04.217Z,65.43
2018-09-04T21:06:45.821Z,66.01
2018-09-04T21:09:26.808Z,65.60
2018-09-04T21:11:57.380Z,66.05
2018-09-04T21:14:26.722Z,65.91
2018-09-04T21:16:56.167Z,65.47
2018-09-04T21:19:25.969Z,65.95
2018-09-04T21:21:55.718Z,66.61
2018-09-04T21:24:25.174Z,66.01
2018-09-04T21:26:56.194Z,65.82
2018-09-04T21:29:25.797Z,66.87
2018-09-04T21:31:55.358Z,66.75
2018-09-04T21:34:24.722Z,65.63
2018-09-04T21:36:55.353Z,65.57
2018-09-04T21:39:25.043Z,66.41
2018-09-04T21:41:54.493Z,65.75
2018-09-04T21:44:25.250Z,66.74
2018-09-04T21:46:55.130Z,65.83
2018-09-04T21:49:24.613Z,65.74
2018-09-04T21:51:54.055Z,65.91
2018-09-04T21:54:23.757Z,66.78
2018-09-04T21:56:54.617Z,65.86
2018-09-04T21:59:24.386Z,66.64
2018-09-04T22:01:53.800Z,66.35
2018-09-04T22:04:23.378Z,66.62
2018-09-04T22:06:52.787Z,66.93
2018-09-04T22:09:22.168Z,66.20
2018-09-04T22:11:51.534Z,67.30
2018-09-04T22:14:21.029Z,67.66
2018-09-04T22:16:50.398Z,66.81
2018-09-04T22:19:19.831Z,66.95
2018-09-04T22:21:49.584Z,67.30
2018-09-04T22:24:19.048Z,67.33
2018-09-04T22:26:48.451Z,66.59
2018-09-04T22:29:18.004Z,66.64
2018-09-04T22:31:47.431Z,67.68
2018-09-04T22:34:18.964Z,68.11
2018-09-04T22:36:49.065Z,68.79
2018-09-04T22:39:18.598Z,68.93
2018-09-04T22:41:47.983Z,68.32
2018-09-04T22:44:17.467Z,68.56
2018-09-04T22:46:47.158Z,68.75
2018-09-04T22:49:16.500Z,68.71
2018-09-04T22:51:45.807Z,69.01
2018-09-04T22:54:15.368Z,69.35
2018-09-04T22:56:44.784Z,69.25
2018-09-04T22:59:14.995Z,69.08
2018-09-04T23:01:44.400Z,69.67
2018-09-04T23:04:13.869Z,69.96
2018-09-04T23:06:43.719Z,69.08
2018-09-04T23:09:13.002Z,69.98
2018-09-04T23:11:42.302Z,69.69
2018-09-04T23:14:11.790Z,70.12
2018-09-04T23:16:41.111Z,70.06
2018-09-04T23:19:10.475Z,70.06
2018-09-04T23:21:40.162Z,69.29
2018-09-04T23:24:09.615Z,69.88
2018-09-04T23:26:39.057Z,70.91
2018-09-04T23:29:08.603Z,71.00
2018-09-04T23:31:38.211Z,70.47
2018-09-04T23:34:07.712Z,70.34
2018-09-04T23:36:37.941Z,69.39
2018-09-04T23:39:07.933Z,69.74
2018-09-04T23:41:37.601Z,69.73
2018-09-04T23:44:07.058Z,70.42
2018-09-04T23:46:36.359Z,70.35
2018-09-04T23:49:06.315Z,69.78
2018-09-04T23:51:36.273Z,70.34
2018-09-04T23:54:05.802Z,70.45
2018-09-04T23:56:35.397Z,70.74
2018-09-04T23:59:05.932Z,70.67
